Time;durP1;ratioP1;P1;durP2;ratioP2;P2;SDS_P1;SDS_P2;PMS_P1;PMS_P2;Temp;Humidity;BMP_temperature;BMP_pressure;BME280_temperature;BME280_humidity;BME280_pressure;Samples;Min_cycle;Max_cycle;Signal;HPM_P1;HPM_P2
2022/02/28 00:01:44;;;;;;;27.50;14.35;;;4.90;96.50;;;;;;5077561;28;20185;-73
2022/02/28 00:04:13;;;;;;;24.02;12.50;;;4.90;96.60;;;;;;5078265;28;20204;-73
2022/02/28 00:06:42;;;;;;;30.40;15.00;;;4.90;96.60;;;;;;5077695;28;20234;-69
2022/02/28 00:09:08;;;;;;;25.48;14.80;;;4.90;96.70;;;;;;5078468;28;20515;-70
2022/02/28 00:11:39;;;;;;;29.83;14.35;;;4.90;96.80;;;;;;5078059;28;20219;-69
2022/02/28 00:14:10;;;;;;;20.42;11.65;;;4.90;96.90;;;;;;5078459;28;20539;-74
2022/02/28 00:16:37;;;;;;;16.65;11.20;;;4.90;96.90;;;;;;5095775;28;20621;-73
2022/02/28 00:19:12;;;;;;;15.90;11.13;;;4.80;97.00;;;;;;5077783;28;20188;-74
2022/02/28 00:21:39;;;;;;;16.95;10.40;;;4.80;97.10;;;;;;5077631;28;20184;-70
2022/02/28 00:24:05;;;;;;;15.43;10.30;;;4.70;97.20;;;;;;5077848;28;20224;-69
2022/02/28 00:26:36;;;;;;;20.95;11.90;;;4.70;97.40;;;;;;5075255;28;20649;-73
2022/02/28 00:29:02;;;;;;;21.40;12.23;;;4.70;97.50;;;;;;5057966;28;20208;-70
2022/02/28 00:31:29;;;;;;;17.92;11.00;;;4.60;97.70;;;;;;5057612;28;20327;-70
2022/02/28 00:34:01;;;;;;;16.98;10.60;;;4.60;97.90;;;;;;5075560;28;20193;-73
2022/02/28 00:36:29;;;;;;;12.18;8.25;;;4.60;98.00;;;;;;5058882;28;20177;-69
2022/02/28 00:39:06;;;;;;;12.05;8.93;;;4.50;98.10;;;;;;5077750;28;20207;-74
2022/02/28 00:41:34;;;;;;;14.05;9.63;;;4.50;98.10;;;;;;5075102;28;20180;-73
2022/02/28 00:44:02;;;;;;;14.98;10.05;;;4.40;98.20;;;;;;5057409;28;20193;-73
2022/02/28 00:46:42;;;;;;;16.45;10.50;;;4.40;98.40;;;;;;5057162;28;20189;-73
2022/02/28 00:49:11;;;;;;;22.20;12.32;;;4.30;98.50;;;;;;5072342;28;20240;-73
2022/02/28 00:51:39;;;;;;;34.00;15.60;;;4.20;98.80;;;;;;5073636;28;20177;-69
2022/02/28 00:54:16;;;;;;;24.08;13.88;;;4.20;98.90;;;;;;5073822;28;20189;-72
2022/02/28 00:56:53;;;;;;;23.52;12.88;;;4.10;99.20;;;;;;5073537;28;20268;-73
2022/02/28 00:59:30;;;;;;;23.10;14.25;;;4.10;99.60;;;;;;5073859;28;20177;-74
2022/02/28 01:01:56;;;;;;;18.45;13.25;;;4.00;99.90;;;;;;5073600;28;20227;-73
2022/02/28 01:04:27;;;;;;;24.50;14.32;;;3.90;99.90;;;;;;5073610;28;20578;-69
2022/02/28 01:06:55;;;;;;;24.98;14.48;;;3.90;99.90;;;;;;5078726;28;20191;-68
2022/02/28 01:09:22;;;;;;;21.85;13.05;;;3.90;99.90;;;;;;5093979;28;20755;-69
2022/02/28 01:11:49;;;;;;;17.27;11.00;;;3.90;99.90;;;;;;5093645;28;20261;-68
2022/02/28 01:14:27;;;;;;;20.23;11.38;;;3.80;99.90;;;;;;5093919;28;20180;-73
2022/02/28 01:16:59;;;;;;;27.52;11.98;;;3.80;99.90;;;;;;5088355;28;20184;-74
2022/02/28 01:19:28;;;;;;;32.72;15.80;;;3.80;99.90;;;;;;5073368;28;20181;-74
2022/02/28 01:21:58;;;;;;;30.80;14.57;;;3.80;99.90;;;;;;5078478;28;20249;-69
2022/02/28 01:24:27;;;;;;;31.02;17.08;;;3.80;99.90;;;;;;5093341;28;20238;-73
2022/02/28 01:26:55;;;;;;;25.92;13.05;;;3.80;99.90;;;;;;5093340;28;20230;-74
2022/02/28 01:29:24;;;;;;;13.30;10.55;;;3.80;99.90;;;;;;5092611;28;20208;-73
2022/02/28 01:31:51;;;;;;;18.48;11.88;;;3.70;99.90;;;;;;5088382;28;20195;-69
2022/02/28 01:34:18;;;;;;;19.80;12.13;;;3.70;99.90;;;;;;5072970;28;20185;-70
2022/02/28 01:36:50;;;;;;;16.70;11.95;;;3.70;99.90;;;;;;5072686;28;20593;-70
2022/02/28 01:39:21;;;;;;;24.75;13.48;;;3.70;99.90;;;;;;5072580;28;20188;-69
2022/02/28 01:41:54;;;;;;;24.02;13.35;;;3.70;99.90;;;;;;5078295;28;20182;-73
2022/02/28 01:44:32;;;;;;;23.05;14.02;;;3.70;99.90;;;;;;5094208;28;20208;-73
2022/02/28 01:47:02;;;;;;;25.25;13.75;;;3.70;99.90;;;;;;5092537;28;20200;-69
2022/02/28 01:49:28;;;;;;;19.63;12.80;;;3.60;99.90;;;;;;5076511;28;20196;-70
2022/02/28 01:52:02;;;;;;;23.38;13.07;;;3.60;99.90;;;;;;5075912;28;20579;-73
2022/02/28 01:54:30;;;;;;;26.83;15.25;;;3.60;99.90;;;;;;5076116;28;20184;-70
2022/02/28 01:56:58;;;;;;;34.42;17.25;;;3.50;99.90;;;;;;5070139;28;20618;-73
2022/02/28 01:59:30;;;;;;;32.08;17.15;;;3.50;99.90;;;;;;5055798;28;20658;-70
2022/02/28 02:02:18;;;;;;;39.80;18.55;;;3.50;99.90;;;;;;5055827;28;20201;-73
2022/02/28 02:04:49;;;;;;;37.40;19.30;;;3.50;99.90;;;;;;5055655;28;20213;-68
2022/02/28 02:07:17;;;;;;;46.67;22.10;;;3.40;99.90;;;;;;5055598;28;20205;-70
2022/02/28 02:09:43;;;;;;;37.65;19.23;;;3.40;99.90;;;;;;5055673;28;20177;-70
2022/02/28 02:12:24;;;;;;;38.42;20.23;;;3.40;99.90;;;;;;5055573;28;20197;-73
2022/02/28 02:15:04;;;;;;;45.47;20.35;;;3.30;99.90;;;;;;5055574;28;20661;-73
2022/02/28 02:17:36;;;;;;;54.97;24.95;;;3.30;99.90;;;;;;5065986;28;20245;-74
2022/02/28 02:20:05;;;;;;;38.85;19.30;;;3.20;99.90;;;;;;5075672;28;20634;-73
2022/02/28 02:22:31;;;;;;;42.97;22.60;;;3.20;99.90;;;;;;5065275;28;20196;-73
2022/02/28 02:24:58;;;;;;;41.35;19.38;;;3.20;99.90;;;;;;5055031;28;20254;-70
2022/02/28 02:27:40;;;;;;;39.88;17.88;;;3.20;99.90;;;;;;5064905;28;20196;-73
2022/02/28 02:30:07;;;;;;;21.40;13.75;;;3.10;99.90;;;;;;5075593;28;20321;-74
2022/02/28 02:32:35;;;;;;;34.60;15.25;;;3.10;99.90;;;;;;5064596;28;20205;-73
2022/02/28 02:35:07;;;;;;;21.55;13.15;;;3.10;99.90;;;;;;5073510;28;20173;-69
2022/02/28 02:37:34;;;;;;;20.58;11.57;;;3.10;99.90;;;;;;5055262;28;20203;-70
2022/02/28 02:40:01;;;;;;;20.90;9.68;;;3.10;99.90;;;;;;5057485;28;20188;-70
2022/02/28 02:42:37;;;;;;;12.57;8.85;;;3.10;99.90;;;;;;5069423;28;20314;-73
2022/02/28 02:45:09;;;;;;;19.92;11.57;;;3.10;99.90;;;;;;5079635;28;20211;-73
2022/02/28 02:47:37;;;;;;;17.10;11.45;;;3.10;99.90;;;;;;5081685;28;20232;-73
2022/02/28 02:50:08;;;;;;;22.45;13.48;;;3.10;99.90;;;;;;5096617;28;20203;-70
2022/02/28 02:52:35;;;;;;;27.42;15.13;;;3.10;99.90;;;;;;5085633;28;20196;-69
2022/02/28 02:55:04;;;;;;;18.85;11.98;;;3.10;99.90;;;;;;5075944;28;20177;-69
2022/02/28 02:57:30;;;;;;;16.88;11.25;;;3.00;99.90;;;;;;5075862;28;20209;-70
2022/02/28 03:00:02;;;;;;;21.95;11.95;;;3.00;99.90;;;;;;5075899;28;20200;-69
2022/02/28 03:02:35;;;;;;;12.40;8.45;;;3.00;99.90;;;;;;5076155;28;20992;-73
2022/02/28 03:05:14;;;;;;;23.02;10.82;;;3.00;99.90;;;;;;5075864;28;20209;-69
2022/02/28 03:07:42;;;;;;;16.23;10.05;;;3.00;99.90;;;;;;5077004;28;20192;-70
2022/02/28 03:10:11;;;;;;;14.20;9.10;;;2.90;99.90;;;;;;5075863;28;20173;-73
2022/02/28 03:12:39;;;;;;;14.95;11.00;;;2.90;99.90;;;;;;5077324;28;20202;-69
2022/02/28 03:15:08;;;;;;;15.95;10.57;;;2.90;99.90;;;;;;5075378;28;20195;-73
2022/02/28 03:17:37;;;;;;;13.88;10.45;;;2.80;99.90;;;;;;5075602;28;20224;-70
2022/02/28 03:20:05;;;;;;;17.55;11.65;;;2.80;99.90;;;;;;5075710;28;20181;-68
2022/02/28 03:22:34;;;;;;;20.17;12.73;;;2.80;99.90;;;;;;5076700;28;20193;-73
2022/02/28 03:25:03;;;;;;;16.65;13.43;;;2.70;99.90;;;;;;5075391;28;20224;-73
2022/02/28 03:27:33;;;;;;;22.65;13.70;;;2.70;99.90;;;;;;5075729;28;20646;-73
2022/02/28 03:30:12;;;;;;;18.65;12.07;;;2.70;99.90;;;;;;5075928;28;20177;-73
2022/02/28 03:32:40;;;;;;;22.08;13.00;;;2.70;99.90;;;;;;5075349;28;20196;-69
2022/02/28 03:35:08;;;;;;;19.70;12.63;;;2.60;99.90;;;;;;5075501;28;20777;-69
2022/02/28 03:37:35;;;;;;;16.65;11.48;;;2.60;99.90;;;;;;5075414;28;20196;-70
2022/02/28 03:40:03;;;;;;;17.33;11.93;;;2.60;99.90;;;;;;5075521;28;20277;-73
2022/02/28 03:42:34;;;;;;;15.65;10.60;;;2.50;99.90;;;;;;5075312;28;20279;-73
2022/02/28 03:45:11;;;;;;;13.73;9.20;;;2.50;99.90;;;;;;5073849;28;20236;-69
2022/02/28 03:47:49;;;;;;;18.02;10.48;;;2.50;99.90;;;;;;5074729;28;20236;-73
2022/02/28 03:50:17;;;;;;;13.60;8.70;;;2.50;99.90;;;;;;5075568;28;20180;-73
2022/02/28 03:52:45;;;;;;;16.38;10.35;;;2.40;99.90;;;;;;5074186;28;20678;-70
2022/02/28 03:55:24;;;;;;;15.32;10.32;;;2.40;99.90;;;;;;5075488;28;20205;-73
2022/02/28 03:57:52;;;;;;;14.23;9.55;;;2.40;99.90;;;;;;5075077;28;20200;-73
2022/02/28 04:00:26;;;;;;;14.00;9.80;;;2.40;99.90;;;;;;5074844;28;20250;-73
2022/02/28 04:02:53;;;;;;;11.48;8.60;;;2.40;99.90;;;;;;5088283;28;20688;-73
2022/02/28 04:05:30;;;;;;;12.55;8.98;;;2.40;99.90;;;;;;5095100;28;20226;-73
2022/02/28 04:07:58;;;;;;;13.20;9.48;;;2.40;99.90;;;;;;5080877;28;20208;-73
2022/02/28 04:10:27;;;;;;;11.75;8.77;;;2.50;99.90;;;;;;5075912;28;20268;-73
2022/02/28 04:12:55;;;;;;;13.93;10.25;;;2.50;99.90;;;;;;5074731;28;20251;-73
2022/02/28 04:15:29;;;;;;;14.57;8.30;;;2.50;99.90;;;;;;5074753;28;20184;-73
2022/02/28 04:17:57;;;;;;;13.30;9.32;;;2.50;99.90;;;;;;5074148;28;20201;-70
2022/02/28 04:20:25;;;;;;;15.60;9.80;;;2.50;99.90;;;;;;5074355;28;20188;-72
2022/02/28 04:22:52;;;;;;;16.92;9.35;;;2.50;99.90;;;;;;5087250;28;20192;-73
2022/02/28 04:25:21;;;;;;;13.57;9.55;;;2.60;99.90;;;;;;5094594;28;20712;-70
2022/02/28 04:27:53;;;;;;;21.98;8.88;;;2.60;99.90;;;;;;5096289;28;20194;-72
2022/02/28 04:30:27;;;;;;;14.18;9.38;;;2.70;99.90;;;;;;5094409;28;20180;-70
2022/02/28 04:33:04;;;;;;;10.70;8.95;;;2.70;99.90;;;;;;5081017;28;20201;-72
2022/02/28 04:35:33;;;;;;;16.50;9.52;;;2.70;99.90;;;;;;5074326;28;20274;-70
2022/02/28 04:38:01;;;;;;;12.75;8.63;;;2.80;99.90;;;;;;5087981;28;20570;-69
2022/02/28 04:40:32;;;;;;;14.73;8.65;;;2.80;99.90;;;;;;5095749;28;20180;-73
2022/02/28 04:43:00;;;;;;;15.85;9.15;;;2.80;99.90;;;;;;5094023;28;20661;-72
2022/02/28 04:45:35;;;;;;;12.07;8.48;;;2.90;99.90;;;;;;5094181;28;20259;-69
2022/02/28 04:48:09;;;;;;;14.23;9.10;;;2.90;99.90;;;;;;5094021;28;20276;-72
2022/02/28 04:50:43;;;;;;;14.20;8.77;;;2.90;99.90;;;;;;5094304;28;20263;-70
2022/02/28 04:53:14;;;;;;;15.23;8.30;;;3.00;99.90;;;;;;5079229;28;20205;-73
2022/02/28 04:55:42;;;;;;;14.35;8.82;;;3.00;99.90;;;;;;5073758;28;20177;-70
2022/02/28 04:58:10;;;;;;;12.57;8.35;;;3.00;99.90;;;;;;5073656;28;20205;-70
2022/02/28 05:00:49;;;;;;;13.48;8.43;;;3.00;99.90;;;;;;5074010;28;20193;-69
2022/02/28 05:03:28;;;;;;;9.48;8.15;;;3.00;99.90;;;;;;5075336;28;20555;-73
2022/02/28 05:06:06;;;;;;;18.17;9.85;;;2.90;99.90;;;;;;5074858;28;20200;-68
2022/02/28 05:08:33;;;;;;;11.88;8.65;;;2.90;99.90;;;;;;5073340;28;20205;-70
2022/02/28 05:11:02;;;;;;;14.10;8.50;;;2.90;99.90;;;;;;5073391;28;20205;-70
2022/02/28 05:13:31;;;;;;;15.90;9.32;;;2.90;99.90;;;;;;5073293;28;20259;-73
2022/02/28 05:16:09;;;;;;;12.10;9.35;;;3.00;99.90;;;;;;5073168;28;20607;-73
2022/02/28 05:18:37;;;;;;;15.82;8.90;;;3.00;99.90;;;;;;5073107;28;20292;-73
2022/02/28 05:21:04;;;;;;;13.02;7.35;;;3.00;99.90;;;;;;5073207;28;20177;-69
2022/02/28 05:23:31;;;;;;;13.45;8.50;;;3.10;99.90;;;;;;5091299;28;20232;-73
2022/02/28 05:26:03;;;;;;;16.20;9.00;;;3.20;99.90;;;;;;5093189;28;20700;-72
2022/02/28 05:28:43;;;;;;;15.82;9.27;;;3.20;99.90;;;;;;5075612;28;20205;-73
2022/02/28 05:31:12;;;;;;;15.73;8.45;;;3.30;99.90;;;;;;5080898;28;20179;-70
2022/02/28 05:33:38;;;;;;;11.93;7.68;;;3.40;99.90;;;;;;5092012;28;20621;-72
2022/02/28 05:36:11;;;;;;;9.85;6.82;;;3.40;99.90;;;;;;5092063;28;20176;-71
2022/02/28 05:38:56;;;;;;;10.60;7.63;;;3.50;99.90;;;;;;5093287;28;20234;-73
2022/02/28 05:41:31;;;;;;;16.60;7.03;;;3.60;99.90;;;;;;5092102;28;20184;-73
2022/02/28 05:43:57;;;;;;;8.52;6.85;;;4.00;99.90;;;;;;5093128;28;20207;-69
2022/02/28 05:46:25;;;;;;;9.80;6.15;;;4.40;99.90;;;;;;5091667;28;20212;-70
2022/02/28 05:48:55;;;;;;;9.35;6.32;;;4.70;99.90;;;;;;5092220;28;20263;-73
2022/02/28 05:51:25;;;;;;;17.52;7.00;;;5.20;99.90;;;;;;5069203;28;20242;-73
2022/02/28 05:54:02;;;;;;;13.82;6.90;;;5.50;99.90;;;;;;5075811;28;20208;-73
2022/02/28 05:56:30;;;;;;;12.07;7.47;;;5.70;99.90;;;;;;5072953;28;20229;-72
2022/02/28 05:58:58;;;;;;;12.13;7.10;;;5.90;99.90;;;;;;5075289;28;20677;-73
2022/02/28 06:01:25;;;;;;;8.45;6.32;;;5.90;99.90;;;;;;5074766;28;20499;-71
2022/02/28 06:03:55;;;;;;;8.52;5.78;;;5.80;99.90;;;;;;5075147;28;20212;-71
2022/02/28 06:06:31;;;;;;;16.95;6.57;;;5.80;99.90;;;;;;5070823;28;20216;-73
2022/02/28 06:09:07;;;;;;;6.40;5.28;;;6.00;99.90;;;;;;5069904;28;20212;-73
2022/02/28 06:11:41;;;;;;;8.10;5.95;;;6.00;99.90;;;;;;5072136;28;20254;-74
2022/02/28 06:14:10;;;;;;;5.35;4.63;;;5.90;99.90;;;;;;5069274;28;20486;-70
2022/02/28 06:16:40;;;;;;;7.38;5.72;;;5.70;99.90;;;;;;5071633;28;20652;-70
2022/02/28 06:19:07;;;;;;;10.40;6.55;;;5.50;99.90;;;;;;5072308;28;20184;-73
2022/02/28 06:21:34;;;;;;;9.82;6.50;;;5.20;99.90;;;;;;5090487;28;20267;-73
2022/02/28 06:24:00;;;;;;;296.92;140.77;;;5.10;99.90;;;;;;5069667;28;20550;-71
2022/02/28 06:26:27;;;;;;;142.75;79.03;;;5.00;99.90;;;;;;5080572;28;20224;-73
2022/02/28 06:29:08;;;;;;;13.38;7.57;;;4.90;99.90;;;;;;5065650;28;20208;-73
2022/02/28 06:31:34;;;;;;;9.55;6.15;;;4.80;99.90;;;;;;5065694;28;20529;-71
2022/02/28 06:34:05;;;;;;;8.70;6.00;;;4.70;99.90;;;;;;5073803;28;20207;-73
2022/02/28 06:36:34;;;;;;;8.35;5.30;;;4.60;99.90;;;;;;5067832;28;20230;-71
2022/02/28 06:39:04;;;;;;;7.07;4.30;;;4.60;99.90;;;;;;5064527;28;20201;-69
2022/02/28 06:41:39;;;;;;;8.45;6.60;;;4.50;99.90;;;;;;5069541;28;20188;-73
2022/02/28 06:44:13;;;;;;;7.72;5.53;;;4.50;99.90;;;;;;5069053;28;20177;-73
2022/02/28 06:53:24;;;;;;;22.85;10.40;;;4.30;99.90;;;;;;5080542;28;20637;-74
2022/02/28 06:56:14;;;;;;;13.13;6.65;;;4.30;99.90;;;;;;5063223;28;20189;-69
2022/02/28 06:58:44;;;;;;;6.18;4.10;;;4.30;99.90;;;;;;5057777;28;20208;-69
2022/02/28 07:01:20;;;;;;;8.52;5.30;;;4.30;99.90;;;;;;5062660;28;20822;-73
2022/02/28 07:03:51;;;;;;;7.05;4.85;;;4.30;99.90;;;;;;5081805;28;20209;-71
2022/02/28 07:06:20;;;;;;;7.20;4.75;;;4.30;99.90;;;;;;5068401;28;20216;-72
2022/02/28 07:08:54;;;;;;;7.05;4.50;;;4.30;99.90;;;;;;5053674;28;20215;-70
2022/02/28 07:14:31;;;;;;;5.57;3.80;;;4.40;99.90;;;;;;5037064;28;20237;-73
2022/02/28 07:17:51;;;;;;;7.32;3.75;;;4.40;99.90;;;;;;5046053;28;20241;-69
2022/02/28 07:20:20;;;;;;;5.75;4.07;;;4.50;99.90;;;;;;5040547;28;20181;-72
2022/02/28 07:22:46;;;;;;;6.97;4.30;;;4.50;99.90;;;;;;5043423;28;20266;-68
2022/02/28 07:25:36;;;;;;;5.18;4.20;;;4.60;99.90;;;;;;5033574;28;20216;-71
2022/02/28 07:28:04;;;;;;;4.85;3.88;;;4.60;99.90;;;;;;5053201;28;20205;-68
2022/02/28 07:30:31;;;;;;;6.13;4.22;;;4.70;99.90;;;;;;5033207;28;20619;-68
2022/02/28 07:32:58;;;;;;;4.90;4.05;;;4.70;99.90;;;;;;5032833;28;20246;-68
2022/02/28 07:35:51;;;;;;;6.03;4.70;;;4.70;99.90;;;;;;5037740;28;20222;-71
2022/02/28 07:38:20;;;;;;;5.85;3.85;;;4.80;99.90;;;;;;5018248;28;20215;-67
2022/02/28 07:40:48;;;;;;;7.20;4.93;;;4.90;99.90;;;;;;5044078;28;20229;-70
2022/02/28 07:43:14;;;;;;;10.15;5.65;;;5.00;99.90;;;;;;5034957;28;20518;-68
2022/02/28 07:45:41;;;;;;;17.02;7.82;;;5.20;99.90;;;;;;5037203;28;20205;-72
2022/02/28 07:48:36;;;;;;;22.20;9.88;;;5.30;99.90;;;;;;5036880;28;20216;-73
2022/02/28 07:51:17;;;;;;;10.82;7.00;;;5.40;99.90;;;;;;5044225;28;20204;-72
2022/02/28 07:53:44;;;;;;;24.05;12.35;;;5.60;99.90;;;;;;5048936;28;20213;-73
2022/02/28 07:56:19;;;;;;;16.95;9.77;;;5.80;99.90;;;;;;5039828;28;20525;-72
2022/02/28 07:58:46;;;;;;;14.77;8.70;;;5.90;99.90;;;;;;5029867;28;20207;-69
2022/02/28 08:01:16;;;;;;;14.40;7.15;;;6.00;99.90;;;;;;5037935;28;20177;-69
2022/02/28 08:06:55;;;;;;;18.23;7.85;;;6.30;99.90;;;;;;4972821;28;20196;-73
2022/02/28 08:09:24;;;;;;;12.02;6.80;;;6.50;99.90;;;;;;5028610;28;20196;-69
2022/02/28 08:11:51;;;;;;;8.93;5.88;;;6.70;99.90;;;;;;5016988;28;20192;-68
2022/02/28 08:14:24;;;;;;;10.68;6.35;;;7.10;99.90;;;;;;5030693;28;20226;-71
2022/02/28 08:16:54;;;;;;;11.48;6.25;;;7.60;99.90;;;;;;5026985;28;20185;-73
2022/02/28 08:19:21;;;;;;;10.48;6.38;;;8.10;99.90;;;;;;5046927;28;20217;-71
2022/02/28 08:21:48;;;;;;;11.75;6.35;;;8.70;99.90;;;;;;5032895;28;20533;-69
2022/02/28 08:24:17;;;;;;;12.50;7.75;;;9.50;99.90;;;;;;5034785;28;20658;-74
2022/02/28 08:26:45;;;;;;;8.02;5.40;;;10.30;99.90;;;;;;5029305;28;20192;-68
2022/02/28 08:29:23;;;;;;;13.65;7.70;;;11.00;99.40;;;;;;5029466;28;20746;-73
2022/02/28 08:32:10;;;;;;;8.45;5.22;;;11.90;97.80;;;;;;5033207;28;20550;-73
2022/02/28 08:34:45;;;;;;;8.63;4.47;;;12.50;96.30;;;;;;5034026;28;20193;-69
2022/02/28 08:37:19;;;;;;;16.65;8.00;;;13.10;95.10;;;;;;5034766;28;20267;-69
2022/02/28 08:39:46;;;;;;;13.60;7.65;;;13.60;93.10;;;;;;5031825;28;20319;-72
2022/02/28 08:42:23;;;;;;;9.77;5.88;;;14.10;92.60;;;;;;5037172;28;20493;-71
2022/02/28 08:44:50;;;;;;;16.75;8.32;;;14.50;91.60;;;;;;5027705;28;20555;-71
2022/02/28 08:47:17;;;;;;;7.13;5.82;;;15.00;89.30;;;;;;5033394;28;20217;-70
2022/02/28 08:49:46;;;;;;;8.60;5.93;;;15.30;88.80;;;;;;5030748;28;20182;-72
2022/02/28 08:52:15;;;;;;;12.00;7.85;;;15.50;86.10;;;;;;5030421;28;20687;-70
2022/02/28 08:55:03;;;;;;;12.75;8.40;;;15.90;84.30;;;;;;5031819;28;20185;-69
2022/02/28 08:57:36;;;;;;;13.63;7.43;;;16.10;82.50;;;;;;5050449;28;20256;-72
2022/02/28 09:00:18;;;;;;;9.48;6.60;;;16.30;80.90;;;;;;5036642;28;20410;-69
2022/02/28 09:06:15;;;;;;;13.33;7.10;;;16.60;79.50;;;;;;5046190;28;21056;-70
2022/02/28 09:08:46;;;;;;;11.90;6.63;;;16.80;79.80;;;;;;5031829;28;20470;-70
2022/02/28 09:11:21;;;;;;;5.27;4.03;;;17.10;78.30;;;;;;5031216;28;20418;-70
2022/02/28 09:13:49;;;;;;;5.53;4.77;;;17.20;76.70;;;;;;5025015;28;20835;-72
2022/02/28 09:16:23;;;;;;;6.10;3.93;;;17.10;77.00;;;;;;5039326;28;20442;-74
2022/02/28 09:18:52;;;;;;;9.70;6.60;;;16.90;77.30;;;;;;5026342;28;20986;-71
2022/02/28 09:21:53;;;;;;;9.37;7.47;;;16.30;76.70;;;;;;5004643;28;20963;-74
2022/02/28 09:24:39;;;;;;;10.30;5.90;;;15.50;78.10;;;;;;5010960;28;20786;-75
2022/02/28 09:27:07;;;;;;;5.45;4.95;;;14.90;78.90;;;;;;4948906;28;20279;-69
2022/02/28 09:29:35;;;;;;;6.75;5.38;;;14.10;80.70;;;;;;5008749;28;20291;-69
2022/02/28 09:32:06;;;;;;;10.82;6.53;;;13.30;81.90;;;;;;5020022;28;20291;-74
2022/02/28 09:34:33;;;;;;;6.70;5.93;;;12.60;83.10;;;;;;5032801;28;20185;-69
2022/02/28 09:37:01;;;;;;;8.85;5.35;;;12.00;84.30;;;;;;5014027;28;20211;-69
2022/02/28 09:39:27;;;;;;;7.35;5.72;;;11.50;85.70;;;;;;5042447;28;20223;-69
2022/02/28 09:41:57;;;;;;;7.85;6.25;;;11.00;87.00;;;;;;5039149;28;20184;-69
2022/02/28 09:44:30;;;;;;;7.30;5.03;;;10.70;88.20;;;;;;5036856;28;20235;-74
2022/02/28 09:47:04;;;;;;;6.88;6.03;;;10.30;89.40;;;;;;5034709;28;20700;-73
2022/02/28 09:49:32;;;;;;;11.45;5.60;;;10.00;90.20;;;;;;5031777;28;20276;-69
2022/02/28 09:52:01;;;;;;;6.88;5.28;;;9.70;90.70;;;;;;5051652;28;20250;-76
2022/02/28 09:54:28;;;;;;;8.75;5.57;;;9.40;91.20;;;;;;5040302;28;20569;-71
2022/02/28 09:57:03;;;;;;;6.25;3.38;;;9.20;91.60;;;;;;5038166;28;20187;-70
2022/02/28 09:59:41;;;;;;;6.82;5.05;;;9.10;92.20;;;;;;4962516;28;20193;-70
2022/02/28 10:02:09;;;;;;;4.53;2.75;;;8.80;92.80;;;;;;5020716;28;20239;-69
2022/02/28 10:04:37;;;;;;;6.30;4.78;;;8.60;93.70;;;;;;5023912;28;20279;-69
2022/02/28 10:07:23;;;;;;;7.35;4.20;;;8.50;94.40;;;;;;5036145;28;20263;-69
2022/02/28 10:10:10;;;;;;;11.65;6.13;;;8.30;94.60;;;;;;5032759;28;20193;-70
2022/02/28 10:12:47;;;;;;;7.00;4.40;;;8.10;94.90;;;;;;5027931;28;20629;-70
2022/02/28 10:15:19;;;;;;;7.47;4.93;;;8.00;95.50;;;;;;5044170;28;20196;-69
2022/02/28 10:18:03;;;;;;;5.60;3.90;;;7.80;96.00;;;;;;5037389;28;20204;-69
2022/02/28 10:20:35;;;;;;;6.60;5.20;;;7.70;96.50;;;;;;5040647;28;20193;-69
2022/02/28 10:23:11;;;;;;;6.80;5.15;;;7.60;96.90;;;;;;5034305;28;20217;-68
2022/02/28 10:25:57;;;;;;;5.68;4.72;;;7.40;97.30;;;;;;5031473;28;20594;-74
2022/02/28 10:28:26;;;;;;;5.95;5.32;;;7.40;98.00;;;;;;5045940;28;20200;-75
2022/02/28 10:31:01;;;;;;;8.07;5.82;;;7.30;98.50;;;;;;5023854;28;20646;-74
2022/02/28 10:33:33;;;;;;;8.90;6.18;;;7.30;99.20;;;;;;5014260;28;20283;-71
2022/02/28 10:36:19;;;;;;;6.53;5.75;;;7.20;99.90;;;;;;4963508;28;20238;-68
2022/02/28 10:39:01;;;;;;;10.18;5.85;;;7.20;99.90;;;;;;5009702;28;20208;-70
2022/02/28 10:41:36;;;;;;;8.27;6.53;;;7.20;99.90;;;;;;5021606;28;20188;-69
2022/02/28 10:44:08;;;;;;;7.60;6.80;;;7.10;99.90;;;;;;4976725;28;20653;-69
2022/02/28 10:46:45;;;;;;;8.50;6.60;;;7.10;99.90;;;;;;5040706;28;20555;-70
2022/02/28 10:49:27;;;;;;;9.70;6.90;;;7.10;99.90;;;;;;4976294;28;20196;-74
2022/02/28 10:52:08;;;;;;;7.45;5.65;;;7.10;99.90;;;;;;5038903;28;20209;-74
2022/02/28 10:54:48;;;;;;;9.07;6.65;;;7.00;99.90;;;;;;5044454;28;20246;-75
2022/02/28 10:57:42;;;;;;;7.32;6.43;;;7.00;99.90;;;;;;5040373;28;20208;-75
2022/02/28 11:00:12;;;;;;;8.82;6.20;;;6.90;99.90;;;;;;5031610;28;20192;-70
2022/02/28 11:02:44;;;;;;;7.60;6.32;;;6.80;99.90;;;;;;5038787;28;20246;-70
2022/02/28 11:05:26;;;;;;;10.18;6.50;;;6.70;99.90;;;;;;5038580;28;20720;-74
2022/02/28 11:07:53;;;;;;;7.47;6.00;;;6.60;99.90;;;;;;5054226;28;20617;-70
2022/02/28 11:10:25;;;;;;;5.32;3.88;;;6.60;99.90;;;;;;5026199;28;20600;-70
2022/02/28 11:12:59;;;;;;;7.72;5.72;;;6.50;99.90;;;;;;5047178;28;20286;-70
2022/02/28 11:15:30;;;;;;;7.97;7.18;;;6.40;99.90;;;;;;5029001;28;20234;-75
2022/02/28 11:18:05;;;;;;;9.85;7.22;;;6.20;99.90;;;;;;5032203;28;20205;-71
2022/02/28 11:24:06;;;;;;;11.73;8.10;;;5.80;99.90;;;;;;5294995;22;20264;-73
2022/02/28 11:29:32;;;;;;;14.88;9.23;;;5.20;99.90;;;;;;5444197;22;20296;-87
2022/02/28 11:31:59;;;;;;;19.85;11.23;;;5.10;99.90;;;;;;4996072;28;20394;-87
2022/02/28 11:34:25;;;;;;;16.50;11.68;;;5.00;99.90;;;;;;5059267;28;20187;-90
2022/02/28 11:37:01;;;;;;;22.70;13.60;;;5.00;99.90;;;;;;5024531;28;20235;-90
2022/02/28 11:39:32;;;;;;;13.57;10.43;;;4.90;99.90;;;;;;5062907;28;20445;-90
2022/02/28 11:41:59;;;;;;;13.52;8.90;;;5.00;99.90;;;;;;5021058;28;20175;-85
2022/02/28 11:44:25;;;;;;;11.43;9.43;;;5.00;99.90;;;;;;5033480;28;20187;-86
2022/02/28 11:47:02;;;;;;;12.18;8.55;;;5.00;99.90;;;;;;5030366;28;20176;-88
2022/02/28 11:49:45;;;;;;;11.20;9.00;;;5.00;99.90;;;;;;5020753;28;20212;-91
2022/02/28 11:52:30;;;;;;;10.73;8.20;;;5.00;99.90;;;;;;5028592;28;20172;-91
2022/02/28 11:55:15;;;;;;;12.25;8.98;;;5.10;99.90;;;;;;5002721;28;20787;-91
2022/02/28 11:57:55;;;;;;;9.45;7.82;;;5.10;99.90;;;;;;4997053;28;20230;-91
2022/02/28 12:00:46;;;;;;;13.13;8.25;;;5.00;99.90;;;;;;5031213;28;20191;-91
2022/02/28 12:03:21;;;;;;;8.63;7.40;;;5.00;99.90;;;;;;5001419;28;20187;-89
2022/02/28 12:05:47;;;;;;;9.73;7.78;;;5.00;99.90;;;;;;5000048;28;20245;-89
2022/02/28 12:08:17;;;;;;;12.20;8.23;;;5.00;99.90;;;;;;4993882;28;20184;-90
2022/02/28 12:11:14;;;;;;;8.57;7.10;;;4.90;99.90;;;;;;5013583;28;20661;-89
2022/02/28 12:13:40;;;;;;;7.30;6.20;;;4.90;99.90;;;;;;5003850;28;20206;-91
2022/02/28 12:19:27;;;;;;;11.95;7.30;;;4.80;99.90;;;;;;5001134;28;20276;-88
2022/02/28 12:22:05;;;;;;;9.80;8.05;;;4.70;99.90;;;;;;4986903;28;20660;-89
2022/02/28 12:24:56;;;;;;;11.57;7.95;;;4.70;99.90;;;;;;5013042;28;20290;-89
2022/02/28 12:27:39;;;;;;;12.23;9.52;;;4.60;99.90;;;;;;5012055;28;20189;-88
2022/02/28 12:30:45;;;;;;;12.82;9.80;;;4.60;99.90;;;;;;5015000;28;20702;-91
2022/02/28 12:33:12;;;;;;;10.50;8.82;;;4.50;99.90;;;;;;5017248;28;20187;-89
2022/02/28 12:35:58;;;;;;;10.77;8.18;;;4.50;99.90;;;;;;5014174;28;20579;-86
2022/02/28 12:38:32;;;;;;;12.90;10.05;;;4.50;99.90;;;;;;4993839;28;20182;-87
2022/02/28 12:41:00;;;;;;;10.32;9.23;;;4.40;99.90;;;;;;4990654;28;20210;-89
2022/02/28 12:43:27;;;;;;;9.40;8.32;;;4.40;99.90;;;;;;5012948;28;20258;-87
2022/02/28 12:45:56;;;;;;;10.55;9.48;;;4.40;99.90;;;;;;5097556;28;20224;-86
2022/02/28 12:48:23;;;;;;;12.82;10.48;;;4.40;99.90;;;;;;5100671;28;20323;-89
2022/02/28 12:50:56;;;;;;;11.40;10.23;;;4.30;99.90;;;;;;5100789;28;20227;-86
2022/02/28 12:53:25;;;;;;;11.40;9.63;;;4.30;99.90;;;;;;5103281;28;20258;-86
2022/02/28 12:55:50;;;;;;;13.15;11.77;;;4.30;99.90;;;;;;5101685;28;20235;-86
2022/02/28 12:58:20;;;;;;;13.00;10.20;;;4.30;99.90;;;;;;5106721;28;20612;-87
2022/02/28 13:00:47;;;;;;;13.90;10.75;;;4.30;99.90;;;;;;5108678;28;20702;-89
2022/02/28 13:03:13;;;;;;;14.15;11.80;;;4.40;99.90;;;;;;5105966;28;20576;-88
2022/02/28 13:05:40;;;;;;;13.73;11.13;;;4.40;99.90;;;;;;5116771;28;20203;-87
2022/02/28 13:08:06;;;;;;;14.77;11.75;;;4.40;99.90;;;;;;5124774;28;20184;-87
2022/02/28 13:10:31;;;;;;;17.90;12.87;;;4.40;99.90;;;;;;5115814;28;20610;-87
2022/02/28 13:12:57;;;;;;;17.80;12.10;;;4.40;99.90;;;;;;5114219;28;20179;-89
2022/02/28 13:15:29;;;;;;;13.20;11.27;;;4.40;99.90;;;;;;5114159;28;20427;-86
2022/02/28 13:17:56;;;;;;;11.80;10.32;;;4.50;99.90;;;;;;5112485;28;20190;-90
2022/02/28 13:20:21;;;;;;;14.20;10.77;;;4.50;99.90;;;;;;5112337;28;20402;-87
2022/02/28 13:22:49;;;;;;;12.17;9.63;;;4.50;99.90;;;;;;5105622;28;20669;-88
2022/02/28 13:25:17;;;;;;;12.50;11.20;;;4.50;99.90;;;;;;5102956;28;20223;-90
2022/02/28 13:27:44;;;;;;;11.45;9.68;;;4.50;99.90;;;;;;5120770;28;20179;-87
2022/02/28 13:30:11;;;;;;;14.68;9.82;;;4.50;99.90;;;;;;5115370;28;20212;-90
2022/02/28 13:32:37;;;;;;;11.73;9.65;;;4.60;99.90;;;;;;5106880;28;20200;-87
2022/02/28 13:35:03;;;;;;;12.95;9.32;;;4.60;99.90;;;;;;5107861;28;20238;-90
2022/02/28 13:37:30;;;;;;;13.80;10.00;;;4.60;99.90;;;;;;5103529;28;20245;-88